sensor_id;sensor_type;location;lat;lon;timestamp;P1;durP1;ratioP1;P2;durP2;ratioP2
3405;SDS011;10008;48.682;9.016;2023-07-30T00:01:57;18.03;;;16.07;;
3405;SDS011;10008;48.682;9.016;2023-07-30T00:04:22;23.47;;;18.33;;
3405;SDS011;10008;48.682;9.016;2023-07-30T00:06:48;20.03;;;17.17;;
3405;SDS011;10008;48.682;9.016;2023-07-30T00:09:14;23.00;;;18.10;;
3405;SDS011;10008;48.682;9.016;2023-07-30T00:11:40;23.53;;;18.57;;
3405;SDS011;10008;48.682;9.016;2023-07-30T00:14:05;21.07;;;17.97;;
3405;SDS011;10008;48.682;9.016;2023-07-30T00:16:31;20.80;;;17.00;;
3405;SDS011;10008;48.682;9.016;2023-07-30T00:18:57;21.90;;;17.63;;
3405;SDS011;10008;48.682;9.016;2023-07-30T00:21:23;23.43;;;18.80;;
3405;SDS011;10008;48.682;9.016;2023-07-30T00:23:48;19.10;;;17.13;;
3405;SDS011;10008;48.682;9.016;2023-07-30T00:26:14;20.83;;;17.23;;
3405;SDS011;10008;48.682;9.016;2023-07-30T00:28:40;20.00;;;18.00;;
3405;SDS011;10008;48.682;9.016;2023-07-30T00:31:05;18.80;;;16.80;;
3405;SDS011;10008;48.682;9.016;2023-07-30T00:33:31;19.80;;;16.97;;
3405;SDS011;10008;48.682;9.016;2023-07-30T00:35:57;19.10;;;17.10;;
3405;SDS011;10008;48.682;9.016;2023-07-30T00:38:23;20.57;;;17.63;;
3405;SDS011;10008;48.682;9.016;2023-07-30T00:40:48;18.83;;;16.87;;
3405;SDS011;10008;48.682;9.016;2023-07-30T00:43:14;19.30;;;15.80;;
3405;SDS011;10008;48.682;9.016;2023-07-30T00:45:41;18.17;;;16.27;;
3405;SDS011;10008;48.682;9.016;2023-07-30T00:48:09;15.40;;;13.83;;
3405;SDS011;10008;48.682;9.016;2023-07-30T00:50:36;16.90;;;15.10;;
3405;SDS011;10008;48.682;9.016;2023-07-30T00:53:02;17.27;;;15.40;;
3405;SDS011;10008;48.682;9.016;2023-07-30T00:55:29;17.33;;;15.17;;
3405;SDS011;10008;48.682;9.016;2023-07-30T00:57:55;18.10;;;16.30;;
3405;SDS011;10008;48.682;9.016;2023-07-30T01:00:22;17.73;;;14.63;;
3405;SDS011;10008;48.682;9.016;2023-07-30T01:02:50;17.07;;;15.27;;
3405;SDS011;10008;48.682;9.016;2023-07-30T01:05:16;22.40;;;16.90;;
3405;SDS011;10008;48.682;9.016;2023-07-30T01:07:42;18.57;;;16.10;;
3405;SDS011;10008;48.682;9.016;2023-07-30T01:10:08;18.77;;;16.77;;
3405;SDS011;10008;48.682;9.016;2023-07-30T01:12:34;19.40;;;15.73;;
3405;SDS011;10008;48.682;9.016;2023-07-30T01:15:02;18.40;;;16.60;;
3405;SDS011;10008;48.682;9.016;2023-07-30T01:17:29;21.17;;;17.43;;
3405;SDS011;10008;48.682;9.016;2023-07-30T01:19:55;21.17;;;16.20;;
3405;SDS011;10008;48.682;9.016;2023-07-30T01:22:22;22.23;;;17.27;;
3405;SDS011;10008;48.682;9.016;2023-07-30T01:24:48;18.20;;;16.33;;
3405;SDS011;10008;48.682;9.016;2023-07-30T01:27:31;19.70;;;16.50;;
3405;SDS011;10008;48.682;9.016;2023-07-30T01:30:09;21.83;;;16.20;;
3405;SDS011;10008;48.682;9.016;2023-07-30T01:32:53;20.30;;;16.60;;
3405;SDS011;10008;48.682;9.016;2023-07-30T01:35:20;17.80;;;15.27;;
3405;SDS011;10008;48.682;9.016;2023-07-30T01:37:49;17.93;;;15.63;;
3405;SDS011;10008;48.682;9.016;2023-07-30T01:40:16;20.20;;;16.70;;
3405;SDS011;10008;48.682;9.016;2023-07-30T01:42:42;22.43;;;17.20;;
3405;SDS011;10008;48.682;9.016;2023-07-30T01:45:08;17.70;;;15.20;;
3405;SDS011;10008;48.682;9.016;2023-07-30T01:47:33;17.80;;;16.00;;
3405;SDS011;10008;48.682;9.016;2023-07-30T01:49:59;15.90;;;14.07;;
3405;SDS011;10008;48.682;9.016;2023-07-30T01:52:25;18.30;;;14.60;;
3405;SDS011;10008;48.682;9.016;2023-07-30T01:54:51;19.63;;;14.90;;
3405;SDS011;10008;48.682;9.016;2023-07-30T01:57:17;15.10;;;13.57;;
3405;SDS011;10008;48.682;9.016;2023-07-30T01:59:43;17.40;;;14.07;;
3405;SDS011;10008;48.682;9.016;2023-07-30T02:02:09;14.80;;;13.37;;
3405;SDS011;10008;48.682;9.016;2023-07-30T02:04:34;15.27;;;12.60;;
3405;SDS011;10008;48.682;9.016;2023-07-30T02:07:00;15.60;;;13.60;;
3405;SDS011;10008;48.682;9.016;2023-07-30T02:09:26;14.67;;;12.47;;
3405;SDS011;10008;48.682;9.016;2023-07-30T02:11:52;17.83;;;13.77;;
3405;SDS011;10008;48.682;9.016;2023-07-30T02:14:18;15.60;;;13.63;;
3405;SDS011;10008;48.682;9.016;2023-07-30T02:16:44;15.03;;;12.67;;
3405;SDS011;10008;48.682;9.016;2023-07-30T02:19:09;15.30;;;12.47;;
3405;SDS011;10008;48.682;9.016;2023-07-30T02:21:35;13.63;;;12.33;;
3405;SDS011;10008;48.682;9.016;2023-07-30T02:24:06;13.80;;;12.50;;
3405;SDS011;10008;48.682;9.016;2023-07-30T02:26:35;16.33;;;12.53;;
3405;SDS011;10008;48.682;9.016;2023-07-30T02:29:01;13.33;;;11.97;;
3405;SDS011;10008;48.682;9.016;2023-07-30T02:31:27;13.13;;;11.93;;
3405;SDS011;10008;48.682;9.016;2023-07-30T02:33:53;17.30;;;13.70;;
3405;SDS011;10008;48.682;9.016;2023-07-30T02:36:19;15.43;;;13.83;;
3405;SDS011;10008;48.682;9.016;2023-07-30T02:38:45;13.70;;;12.23;;
3405;SDS011;10008;48.682;9.016;2023-07-30T02:41:11;16.77;;;13.63;;
3405;SDS011;10008;48.682;9.016;2023-07-30T02:43:37;15.37;;;13.77;;
3405;SDS011;10008;48.682;9.016;2023-07-30T02:46:02;15.97;;;14.47;;
3405;SDS011;10008;48.682;9.016;2023-07-30T02:48:28;17.23;;;13.87;;
3405;SDS011;10008;48.682;9.016;2023-07-30T02:50:54;13.50;;;12.33;;
3405;SDS011;10008;48.682;9.016;2023-07-30T02:53:19;13.07;;;11.97;;
3405;SDS011;10008;48.682;9.016;2023-07-30T02:55:45;13.03;;;11.80;;
3405;SDS011;10008;48.682;9.016;2023-07-30T02:58:11;13.73;;;12.53;;
3405;SDS011;10008;48.682;9.016;2023-07-30T03:00:37;14.87;;;13.40;;
3405;SDS011;10008;48.682;9.016;2023-07-30T03:03:04;18.63;;;13.80;;
3405;SDS011;10008;48.682;9.016;2023-07-30T03:05:30;14.97;;;13.40;;
3405;SDS011;10008;48.682;9.016;2023-07-30T03:07:56;15.20;;;13.70;;
3405;SDS011;10008;48.682;9.016;2023-07-30T03:10:21;13.67;;;12.37;;
3405;SDS011;10008;48.682;9.016;2023-07-30T03:12:47;14.80;;;13.30;;
3405;SDS011;10008;48.682;9.016;2023-07-30T03:15:13;17.67;;;13.63;;
3405;SDS011;10008;48.682;9.016;2023-07-30T03:17:38;13.60;;;12.20;;
3405;SDS011;10008;48.682;9.016;2023-07-30T03:20:04;19.03;;;13.53;;
3405;SDS011;10008;48.682;9.016;2023-07-30T03:22:31;15.37;;;13.77;;
3405;SDS011;10008;48.682;9.016;2023-07-30T03:24:56;16.70;;;13.73;;
3405;SDS011;10008;48.682;9.016;2023-07-30T03:27:22;16.80;;;14.37;;
3405;SDS011;10008;48.682;9.016;2023-07-30T03:29:48;15.20;;;13.50;;
3405;SDS011;10008;48.682;9.016;2023-07-30T03:32:13;14.73;;;13.00;;
3405;SDS011;10008;48.682;9.016;2023-07-30T03:34:39;16.43;;;14.13;;
3405;SDS011;10008;48.682;9.016;2023-07-30T03:37:05;18.43;;;14.20;;
3405;SDS011;10008;48.682;9.016;2023-07-30T03:39:31;15.50;;;13.10;;
3405;SDS011;10008;48.682;9.016;2023-07-30T03:41:56;14.13;;;12.10;;
3405;SDS011;10008;48.682;9.016;2023-07-30T03:44:22;15.23;;;13.63;;
3405;SDS011;10008;48.682;9.016;2023-07-30T03:46:48;15.60;;;14.00;;
3405;SDS011;10008;48.682;9.016;2023-07-30T03:49:13;18.57;;;14.37;;
3405;SDS011;10008;48.682;9.016;2023-07-30T03:51:39;14.70;;;13.20;;
3405;SDS011;10008;48.682;9.016;2023-07-30T03:54:06;19.47;;;15.40;;
3405;SDS011;10008;48.682;9.016;2023-07-30T03:56:31;23.03;;;15.37;;
3405;SDS011;10008;48.682;9.016;2023-07-30T03:58:57;17.80;;;15.90;;
3405;SDS011;10008;48.682;9.016;2023-07-30T04:01:23;16.30;;;14.80;;
3405;SDS011;10008;48.682;9.016;2023-07-30T04:03:49;19.70;;;16.10;;
3405;SDS011;10008;48.682;9.016;2023-07-30T04:06:14;19.00;;;14.73;;
3405;SDS011;10008;48.682;9.016;2023-07-30T04:08:41;18.33;;;16.00;;
3405;SDS011;10008;48.682;9.016;2023-07-30T04:11:07;16.30;;;14.23;;
3405;SDS011;10008;48.682;9.016;2023-07-30T04:13:34;15.20;;;13.67;;
3405;SDS011;10008;48.682;9.016;2023-07-30T04:15:59;18.37;;;15.40;;
3405;SDS011;10008;48.682;9.016;2023-07-30T04:18:25;18.67;;;16.10;;
3405;SDS011;10008;48.682;9.016;2023-07-30T04:20:53;18.63;;;15.67;;
3405;SDS011;10008;48.682;9.016;2023-07-30T04:23:21;21.80;;;15.40;;
3405;SDS011;10008;48.682;9.016;2023-07-30T04:25:48;20.40;;;15.13;;
3405;SDS011;10008;48.682;9.016;2023-07-30T04:28:15;20.63;;;15.80;;
3405;SDS011;10008;48.682;9.016;2023-07-30T04:30:40;14.50;;;13.10;;
3405;SDS011;10008;48.682;9.016;2023-07-30T04:33:06;19.20;;;14.77;;
3405;SDS011;10008;48.682;9.016;2023-07-30T04:35:34;14.43;;;13.00;;
3405;SDS011;10008;48.682;9.016;2023-07-30T04:38:00;14.70;;;13.20;;
3405;SDS011;10008;48.682;9.016;2023-07-30T04:40:26;14.90;;;13.40;;
3405;SDS011;10008;48.682;9.016;2023-07-30T04:42:51;13.97;;;12.60;;
3405;SDS011;10008;48.682;9.016;2023-07-30T04:45:18;17.30;;;14.53;;
3405;SDS011;10008;48.682;9.016;2023-07-30T04:47:46;16.17;;;14.00;;
3405;SDS011;10008;48.682;9.016;2023-07-30T04:50:12;14.93;;;13.43;;
3405;SDS011;10008;48.682;9.016;2023-07-30T04:52:37;15.40;;;14.00;;
3405;SDS011;10008;48.682;9.016;2023-07-30T04:55:03;14.87;;;13.47;;
3405;SDS011;10008;48.682;9.016;2023-07-30T04:57:30;14.77;;;13.37;;
3405;SDS011;10008;48.682;9.016;2023-07-30T04:59:55;19.33;;;15.00;;
3405;SDS011;10008;48.682;9.016;2023-07-30T05:02:21;16.27;;;13.97;;
3405;SDS011;10008;48.682;9.016;2023-07-30T05:04:48;17.80;;;15.10;;
3405;SDS011;10008;48.682;9.016;2023-07-30T05:07:14;16.43;;;14.10;;
3405;SDS011;10008;48.682;9.016;2023-07-30T05:09:39;14.93;;;13.40;;
3405;SDS011;10008;48.682;9.016;2023-07-30T05:12:05;13.27;;;12.00;;
3405;SDS011;10008;48.682;9.016;2023-07-30T05:14:31;14.03;;;12.30;;
3405;SDS011;10008;48.682;9.016;2023-07-30T05:16:57;13.43;;;12.23;;
3405;SDS011;10008;48.682;9.016;2023-07-30T05:19:22;14.77;;;12.70;;
3405;SDS011;10008;48.682;9.016;2023-07-30T05:21:48;12.10;;;11.00;;
3405;SDS011;10008;48.682;9.016;2023-07-30T05:24:14;12.30;;;11.20;;
3405;SDS011;10008;48.682;9.016;2023-07-30T05:26:39;16.50;;;13.23;;
3405;SDS011;10008;48.682;9.016;2023-07-30T05:29:05;16.33;;;13.07;;
3405;SDS011;10008;48.682;9.016;2023-07-30T05:31:31;14.90;;;13.40;;
3405;SDS011;10008;48.682;9.016;2023-07-30T05:33:56;15.10;;;13.60;;
3405;SDS011;10008;48.682;9.016;2023-07-30T05:36:22;15.53;;;13.93;;
3405;SDS011;10008;48.682;9.016;2023-07-30T05:38:48;16.37;;;14.70;;
3405;SDS011;10008;48.682;9.016;2023-07-30T05:41:14;15.33;;;13.83;;
3405;SDS011;10008;48.682;9.016;2023-07-30T05:43:39;15.00;;;13.50;;
3405;SDS011;10008;48.682;9.016;2023-07-30T05:46:05;16.00;;;14.17;;
3405;SDS011;10008;48.682;9.016;2023-07-30T05:48:31;15.97;;;14.37;;
3405;SDS011;10008;48.682;9.016;2023-07-30T05:50:57;15.07;;;13.57;;
3405;SDS011;10008;48.682;9.016;2023-07-30T05:53:22;16.70;;;14.27;;
3405;SDS011;10008;48.682;9.016;2023-07-30T05:55:48;15.73;;;14.03;;
3405;SDS011;10008;48.682;9.016;2023-07-30T05:58:14;17.30;;;14.27;;
3405;SDS011;10008;48.682;9.016;2023-07-30T06:00:39;14.57;;;13.17;;
3405;SDS011;10008;48.682;9.016;2023-07-30T06:03:05;15.40;;;13.10;;
3405;SDS011;10008;48.682;9.016;2023-07-30T06:05:33;15.57;;;13.97;;
3405;SDS011;10008;48.682;9.016;2023-07-30T06:07:58;14.30;;;12.80;;
3405;SDS011;10008;48.682;9.016;2023-07-30T06:10:25;13.03;;;11.83;;
3405;SDS011;10008;48.682;9.016;2023-07-30T06:12:50;15.40;;;13.57;;
3405;SDS011;10008;48.682;9.016;2023-07-30T06:15:16;14.20;;;12.70;;
3405;SDS011;10008;48.682;9.016;2023-07-30T06:17:42;14.10;;;12.80;;
3405;SDS011;10008;48.682;9.016;2023-07-30T06:20:08;13.03;;;11.83;;
3405;SDS011;10008;48.682;9.016;2023-07-30T06:22:34;13.50;;;12.30;;
3405;SDS011;10008;48.682;9.016;2023-07-30T06:25:00;13.63;;;12.33;;
3405;SDS011;10008;48.682;9.016;2023-07-30T06:27:25;12.03;;;10.93;;
3405;SDS011;10008;48.682;9.016;2023-07-30T06:29:51;11.87;;;10.87;;
3405;SDS011;10008;48.682;9.016;2023-07-30T06:32:17;11.10;;;10.20;;
3405;SDS011;10008;48.682;9.016;2023-07-30T06:34:42;10.90;;;10.00;;
3405;SDS011;10008;48.682;9.016;2023-07-30T06:37:08;9.53;;;8.73;;
3405;SDS011;10008;48.682;9.016;2023-07-30T06:39:34;9.40;;;8.50;;
3405;SDS011;10008;48.682;9.016;2023-07-30T06:41:59;10.03;;;9.13;;
3405;SDS011;10008;48.682;9.016;2023-07-30T06:44:25;10.37;;;9.37;;
3405;SDS011;10008;48.682;9.016;2023-07-30T06:46:51;11.03;;;10.03;;
3405;SDS011;10008;48.682;9.016;2023-07-30T06:49:17;12.00;;;10.90;;
3405;SDS011;10008;48.682;9.016;2023-07-30T06:51:42;11.70;;;10.77;;
3405;SDS011;10008;48.682;9.016;2023-07-30T06:54:08;12.10;;;11.10;;
3405;SDS011;10008;48.682;9.016;2023-07-30T06:56:34;10.77;;;9.87;;
3405;SDS011;10008;48.682;9.016;2023-07-30T06:59:01;10.97;;;9.97;;
3405;SDS011;10008;48.682;9.016;2023-07-30T07:01:27;10.60;;;9.77;;
3405;SDS011;10008;48.682;9.016;2023-07-30T07:03:53;10.30;;;9.50;;
3405;SDS011;10008;48.682;9.016;2023-07-30T07:06:19;9.20;;;8.40;;
3405;SDS011;10008;48.682;9.016;2023-07-30T07:08:44;9.43;;;8.63;;
3405;SDS011;10008;48.682;9.016;2023-07-30T07:11:10;9.57;;;8.60;;
3405;SDS011;10008;48.682;9.016;2023-07-30T07:13:36;9.10;;;8.40;;
3405;SDS011;10008;48.682;9.016;2023-07-30T07:16:02;9.73;;;8.77;;
3405;SDS011;10008;48.682;9.016;2023-07-30T07:18:28;13.20;;;10.30;;
3405;SDS011;10008;48.682;9.016;2023-07-30T07:20:54;12.33;;;11.23;;
3405;SDS011;10008;48.682;9.016;2023-07-30T07:23:20;12.97;;;11.67;;
3405;SDS011;10008;48.682;9.016;2023-07-30T07:25:46;13.43;;;11.83;;
3405;SDS011;10008;48.682;9.016;2023-07-30T07:28:11;12.57;;;11.47;;
3405;SDS011;10008;48.682;9.016;2023-07-30T07:30:37;13.10;;;11.90;;
3405;SDS011;10008;48.682;9.016;2023-07-30T07:33:03;12.70;;;11.60;;
3405;SDS011;10008;48.682;9.016;2023-07-30T07:35:30;12.97;;;11.67;;
3405;SDS011;10008;48.682;9.016;2023-07-30T07:37:56;12.93;;;11.70;;
3405;SDS011;10008;48.682;9.016;2023-07-30T07:40:22;12.20;;;11.10;;
3405;SDS011;10008;48.682;9.016;2023-07-30T07:42:48;12.70;;;11.50;;
3405;SDS011;10008;48.682;9.016;2023-07-30T07:45:14;13.30;;;10.87;;
3405;SDS011;10008;48.682;9.016;2023-07-30T07:47:39;11.73;;;10.60;;
3405;SDS011;10008;48.682;9.016;2023-07-30T07:50:05;12.20;;;10.90;;
3405;SDS011;10008;48.682;9.016;2023-07-30T07:52:31;12.53;;;11.30;;
3405;SDS011;10008;48.682;9.016;2023-07-30T07:54:57;11.83;;;10.73;;
3405;SDS011;10008;48.682;9.016;2023-07-30T07:57:23;12.10;;;11.00;;
3405;SDS011;10008;48.682;9.016;2023-07-30T07:59:48;11.90;;;10.80;;
3405;SDS011;10008;48.682;9.016;2023-07-30T08:02:14;11.67;;;10.67;;
3405;SDS011;10008;48.682;9.016;2023-07-30T08:04:40;11.90;;;10.80;;
3405;SDS011;10008;48.682;9.016;2023-07-30T08:07:05;12.47;;;11.27;;
3405;SDS011;10008;48.682;9.016;2023-07-30T08:09:31;12.77;;;11.57;;
3405;SDS011;10008;48.682;9.016;2023-07-30T08:11:57;12.03;;;10.83;;
3405;SDS011;10008;48.682;9.016;2023-07-30T08:14:24;11.53;;;10.50;;
3405;SDS011;10008;48.682;9.016;2023-07-30T08:16:49;10.70;;;9.70;;
3405;SDS011;10008;48.682;9.016;2023-07-30T08:19:15;11.13;;;10.00;;
3405;SDS011;10008;48.682;9.016;2023-07-30T08:21:41;12.23;;;11.13;;
3405;SDS011;10008;48.682;9.016;2023-07-30T08:24:06;14.50;;;13.10;;
3405;SDS011;10008;48.682;9.016;2023-07-30T08:26:32;13.40;;;12.20;;
3405;SDS011;10008;48.682;9.016;2023-07-30T08:28:58;13.43;;;12.23;;
3405;SDS011;10008;48.682;9.016;2023-07-30T08:31:24;12.50;;;11.40;;
3405;SDS011;10008;48.682;9.016;2023-07-30T08:33:49;13.00;;;11.80;;
3405;SDS011;10008;48.682;9.016;2023-07-30T08:36:15;12.23;;;11.17;;
3405;SDS011;10008;48.682;9.016;2023-07-30T08:38:41;12.53;;;11.37;;
3405;SDS011;10008;48.682;9.016;2023-07-30T08:41:07;12.57;;;11.47;;
3405;SDS011;10008;48.682;9.016;2023-07-30T08:43:34;13.30;;;12.10;;
3405;SDS011;10008;48.682;9.016;2023-07-30T08:46:00;12.60;;;11.50;;
3405;SDS011;10008;48.682;9.016;2023-07-30T08:48:26;13.20;;;11.90;;
3405;SDS011;10008;48.682;9.016;2023-07-30T08:50:52;12.80;;;11.70;;
3405;SDS011;10008;48.682;9.016;2023-07-30T08:53:23;13.57;;;12.37;;
3405;SDS011;10008;48.682;9.016;2023-07-30T08:55:50;13.27;;;12.07;;
3405;SDS011;10008;48.682;9.016;2023-07-30T08:58:16;13.07;;;11.97;;
3405;SDS011;10008;48.682;9.016;2023-07-30T09:00:43;13.30;;;12.10;;
3405;SDS011;10008;48.682;9.016;2023-07-30T09:03:11;12.53;;;11.33;;
3405;SDS011;10008;48.682;9.016;2023-07-30T09:05:41;12.83;;;11.73;;
3405;SDS011;10008;48.682;9.016;2023-07-30T09:08:07;11.87;;;10.87;;
3405;SDS011;10008;48.682;9.016;2023-07-30T09:10:34;12.40;;;11.40;;
3405;SDS011;10008;48.682;9.016;2023-07-30T09:13:01;11.73;;;10.73;;
3405;SDS011;10008;48.682;9.016;2023-07-30T09:15:34;12.13;;;11.03;;
3405;SDS011;10008;48.682;9.016;2023-07-30T09:18:05;11.47;;;10.37;;
3405;SDS011;10008;48.682;9.016;2023-07-30T09:20:38;11.00;;;10.10;;
3405;SDS011;10008;48.682;9.016;2023-07-30T09:23:05;10.87;;;9.97;;
3405;SDS011;10008;48.682;9.016;2023-07-30T09:25:32;10.87;;;9.97;;
3405;SDS011;10008;48.682;9.016;2023-07-30T09:27:58;11.20;;;10.20;;
3405;SDS011;10008;48.682;9.016;2023-07-30T09:30:24;10.60;;;9.70;;
3405;SDS011;10008;48.682;9.016;2023-07-30T09:32:53;10.60;;;9.70;;
3405;SDS011;10008;48.682;9.016;2023-07-30T09:35:20;10.30;;;9.30;;
3405;SDS011;10008;48.682;9.016;2023-07-30T09:37:47;13.90;;;11.87;;
3405;SDS011;10008;48.682;9.016;2023-07-30T09:40:13;10.73;;;9.83;;
3405;SDS011;10008;48.682;9.016;2023-07-30T09:42:45;10.00;;;9.17;;
3405;SDS011;10008;48.682;9.016;2023-07-30T09:45:16;10.37;;;9.47;;
3405;SDS011;10008;48.682;9.016;2023-07-30T09:47:52;10.20;;;9.40;;
3405;SDS011;10008;48.682;9.016;2023-07-30T09:50:21;10.23;;;9.33;;
3405;SDS011;10008;48.682;9.016;2023-07-30T09:52:47;10.47;;;9.67;;
3405;SDS011;10008;48.682;9.016;2023-07-30T09:55:15;11.20;;;10.27;;
3405;SDS011;10008;48.682;9.016;2023-07-30T09:57:41;11.03;;;10.13;;
3405;SDS011;10008;48.682;9.016;2023-07-30T10:00:07;11.00;;;10.00;;
3405;SDS011;10008;48.682;9.016;2023-07-30T10:02:37;11.10;;;9.93;;
3405;SDS011;10008;48.682;9.016;2023-07-30T10:05:10;12.90;;;11.63;;
3405;SDS011;10008;48.682;9.016;2023-07-30T10:08:22;12.70;;;11.60;;
3405;SDS011;10008;48.682;9.016;2023-07-30T10:10:32;13.60;;;12.30;;
3405;SDS011;10008;48.682;9.016;2023-07-30T10:13:02;14.40;;;13.20;;
3405;SDS011;10008;48.682;9.016;2023-07-30T10:15:35;13.60;;;12.50;;
3405;SDS011;10008;48.682;9.016;2023-07-30T10:18:02;14.17;;;12.80;;
3405;SDS011;10008;48.682;9.016;2023-07-30T10:20:28;14.70;;;13.30;;
3405;SDS011;10008;48.682;9.016;2023-07-30T10:22:56;14.30;;;13.10;;
3405;SDS011;10008;48.682;9.016;2023-07-30T10:25:42;14.70;;;13.40;;
3405;SDS011;10008;48.682;9.016;2023-07-30T10:28:31;14.77;;;13.47;;
3405;SDS011;10008;48.682;9.016;2023-07-30T10:30:59;14.63;;;13.20;;
3405;SDS011;10008;48.682;9.016;2023-07-30T10:33:52;14.43;;;13.13;;
3405;SDS011;10008;48.682;9.016;2023-07-30T10:36:31;14.33;;;13.03;;
3405;SDS011;10008;48.682;9.016;2023-07-30T10:39:01;14.70;;;13.37;;
3405;SDS011;10008;48.682;9.016;2023-07-30T10:41:49;14.27;;;13.07;;
3405;SDS011;10008;48.682;9.016;2023-07-30T10:44:26;15.00;;;13.60;;
3405;SDS011;10008;48.682;9.016;2023-07-30T10:46:59;15.00;;;13.60;;
3405;SDS011;10008;48.682;9.016;2023-07-30T10:49:26;14.90;;;13.60;;
3405;SDS011;10008;48.682;9.016;2023-07-30T10:51:52;15.30;;;13.90;;
3405;SDS011;10008;48.682;9.016;2023-07-30T10:54:21;15.50;;;14.10;;
3405;SDS011;10008;48.682;9.016;2023-07-30T10:56:47;15.80;;;14.40;;
3405;SDS011;10008;48.682;9.016;2023-07-30T10:59:13;15.87;;;14.47;;
3405;SDS011;10008;48.682;9.016;2023-07-30T11:01:40;15.73;;;14.33;;
3405;SDS011;10008;48.682;9.016;2023-07-30T11:04:20;15.93;;;14.43;;
3405;SDS011;10008;48.682;9.016;2023-07-30T11:06:49;15.67;;;14.20;;
3405;SDS011;10008;48.682;9.016;2023-07-30T11:09:19;16.13;;;14.63;;
3405;SDS011;10008;48.682;9.016;2023-07-30T11:11:50;16.13;;;14.73;;
3405;SDS011;10008;48.682;9.016;2023-07-30T11:14:23;16.10;;;14.70;;
3405;SDS011;10008;48.682;9.016;2023-07-30T11:16:54;16.40;;;14.70;;
3405;SDS011;10008;48.682;9.016;2023-07-30T11:19:24;15.67;;;14.20;;
3405;SDS011;10008;48.682;9.016;2023-07-30T11:21:54;15.90;;;14.50;;
3405;SDS011;10008;48.682;9.016;2023-07-30T11:24:21;16.60;;;15.20;;
3405;SDS011;10008;48.682;9.016;2023-07-30T11:26:58;15.40;;;14.00;;
3405;SDS011;10008;48.682;9.016;2023-07-30T11:29:25;15.00;;;13.60;;
3405;SDS011;10008;48.682;9.016;2023-07-30T11:31:51;15.47;;;14.07;;
3405;SDS011;10008;48.682;9.016;2023-07-30T11:34:20;14.97;;;13.67;;
3405;SDS011;10008;48.682;9.016;2023-07-30T11:36:46;15.50;;;14.10;;
3405;SDS011;10008;48.682;9.016;2023-07-30T11:39:12;15.40;;;14.00;;
3405;SDS011;10008;48.682;9.016;2023-07-30T11:41:38;15.10;;;13.70;;
3405;SDS011;10008;48.682;9.016;2023-07-30T11:44:04;15.40;;;14.00;;
3405;SDS011;10008;48.682;9.016;2023-07-30T11:46:30;15.50;;;14.00;;
3405;SDS011;10008;48.682;9.016;2023-07-30T11:52:05;14.87;;;13.60;;
3405;SDS011;10008;48.682;9.016;2023-07-30T11:54:35;15.70;;;14.40;;
3405;SDS011;10008;48.682;9.016;2023-07-30T11:57:01;15.70;;;14.30;;
3405;SDS011;10008;48.682;9.016;2023-07-30T11:59:27;15.93;;;14.53;;
3405;SDS011;10008;48.682;9.016;2023-07-30T12:01:55;16.00;;;14.70;;
3405;SDS011;10008;48.682;9.016;2023-07-30T12:04:21;15.67;;;14.30;;
3405;SDS011;10008;48.682;9.016;2023-07-30T12:06:47;15.90;;;14.40;;
3405;SDS011;10008;48.682;9.016;2023-07-30T12:09:21;16.23;;;14.73;;
3405;SDS011;10008;48.682;9.016;2023-07-30T12:14:18;16.17;;;14.37;;
3405;SDS011;10008;48.682;9.016;2023-07-30T12:16:45;16.20;;;14.70;;
3405;SDS011;10008;48.682;9.016;2023-07-30T12:19:11;18.17;;;14.80;;
3405;SDS011;10008;48.682;9.016;2023-07-30T12:21:36;16.20;;;14.50;;
3405;SDS011;10008;48.682;9.016;2023-07-30T12:24:02;16.30;;;14.80;;
3405;SDS011;10008;48.682;9.016;2023-07-30T12:26:31;15.73;;;14.43;;
3405;SDS011;10008;48.682;9.016;2023-07-30T12:28:56;15.53;;;14.23;;
3405;SDS011;10008;48.682;9.016;2023-07-30T12:31:22;15.70;;;14.40;;
3405;SDS011;10008;48.682;9.016;2023-07-30T12:33:48;15.20;;;13.90;;
3405;SDS011;10008;48.682;9.016;2023-07-30T12:36:13;15.93;;;14.43;;
3405;SDS011;10008;48.682;9.016;2023-07-30T12:38:39;16.00;;;14.70;;
3405;SDS011;10008;48.682;9.016;2023-07-30T12:41:05;15.57;;;14.20;;
3405;SDS011;10008;48.682;9.016;2023-07-30T12:43:31;16.43;;;14.97;;
3405;SDS011;10008;48.682;9.016;2023-07-30T12:45:56;14.63;;;13.37;;
3405;SDS011;10008;48.682;9.016;2023-07-30T12:48:22;14.60;;;13.40;;
3405;SDS011;10008;48.682;9.016;2023-07-30T12:50:48;14.87;;;13.63;;
3405;SDS011;10008;48.682;9.016;2023-07-30T12:53:14;15.17;;;13.67;;
3405;SDS011;10008;48.682;9.016;2023-07-30T12:55:39;15.20;;;13.80;;
3405;SDS011;10008;48.682;9.016;2023-07-30T12:58:05;14.70;;;13.40;;
3405;SDS011;10008;48.682;9.016;2023-07-30T13:00:31;15.10;;;13.80;;
3405;SDS011;10008;48.682;9.016;2023-07-30T13:02:58;15.00;;;13.70;;
3405;SDS011;10008;48.682;9.016;2023-07-30T13:05:24;15.37;;;14.00;;
3405;SDS011;10008;48.682;9.016;2023-07-30T13:07:50;16.30;;;14.80;;
3405;SDS011;10008;48.682;9.016;2023-07-30T13:10:16;15.40;;;13.83;;
3405;SDS011;10008;48.682;9.016;2023-07-30T13:12:42;15.73;;;14.20;;
3405;SDS011;10008;48.682;9.016;2023-07-30T13:15:08;15.13;;;13.83;;
3405;SDS011;10008;48.682;9.016;2023-07-30T13:17:34;15.20;;;13.90;;
3405;SDS011;10008;48.682;9.016;2023-07-30T13:19:59;15.70;;;14.30;;
3405;SDS011;10008;48.682;9.016;2023-07-30T13:22:25;15.10;;;13.80;;
3405;SDS011;10008;48.682;9.016;2023-07-30T13:24:51;15.37;;;13.97;;
3405;SDS011;10008;48.682;9.016;2023-07-30T13:27:17;14.70;;;13.40;;
3405;SDS011;10008;48.682;9.016;2023-07-30T13:29:43;14.97;;;13.67;;
3405;SDS011;10008;48.682;9.016;2023-07-30T13:32:09;15.27;;;13.87;;
3405;SDS011;10008;48.682;9.016;2023-07-30T13:34:35;15.30;;;13.80;;
3405;SDS011;10008;48.682;9.016;2023-07-30T13:37:01;16.23;;;14.73;;
3405;SDS011;10008;48.682;9.016;2023-07-30T13:39:27;15.63;;;14.13;;
3405;SDS011;10008;48.682;9.016;2023-07-30T13:41:53;15.60;;;14.20;;
3405;SDS011;10008;48.682;9.016;2023-07-30T13:44:19;15.43;;;13.93;;
3405;SDS011;10008;48.682;9.016;2023-07-30T13:46:45;16.07;;;14.60;;
3405;SDS011;10008;48.682;9.016;2023-07-30T13:49:11;16.20;;;14.60;;
3405;SDS011;10008;48.682;9.016;2023-07-30T13:51:37;15.47;;;14.07;;
3405;SDS011;10008;48.682;9.016;2023-07-30T13:54:03;15.77;;;14.27;;
3405;SDS011;10008;48.682;9.016;2023-07-30T13:56:30;16.27;;;14.53;;
3405;SDS011;10008;48.682;9.016;2023-07-30T13:58:56;15.40;;;13.90;;
3405;SDS011;10008;48.682;9.016;2023-07-30T14:01:22;15.77;;;14.20;;
3405;SDS011;10008;48.682;9.016;2023-07-30T14:03:48;15.40;;;13.80;;
3405;SDS011;10008;48.682;9.016;2023-07-30T14:06:13;15.33;;;13.93;;
3405;SDS011;10008;48.682;9.016;2023-07-30T14:08:39;15.60;;;14.10;;
3405;SDS011;10008;48.682;9.016;2023-07-30T14:11:05;15.07;;;13.77;;
3405;SDS011;10008;48.682;9.016;2023-07-30T14:13:31;15.10;;;13.70;;
3405;SDS011;10008;48.682;9.016;2023-07-30T14:15:57;15.53;;;14.13;;
3405;SDS011;10008;48.682;9.016;2023-07-30T14:18:23;15.43;;;13.93;;
3405;SDS011;10008;48.682;9.016;2023-07-30T14:20:50;16.00;;;14.40;;
3405;SDS011;10008;48.682;9.016;2023-07-30T14:23:16;15.50;;;14.00;;
3405;SDS011;10008;48.682;9.016;2023-07-30T14:25:42;14.67;;;13.37;;
3405;SDS011;10008;48.682;9.016;2023-07-30T14:28:08;14.97;;;13.60;;
3405;SDS011;10008;48.682;9.016;2023-07-30T14:30:34;15.30;;;13.90;;
3405;SDS011;10008;48.682;9.016;2023-07-30T14:33:01;15.67;;;14.17;;
3405;SDS011;10008;48.682;9.016;2023-07-30T14:35:27;15.00;;;13.70;;
3405;SDS011;10008;48.682;9.016;2023-07-30T14:37:53;15.53;;;14.13;;
3405;SDS011;10008;48.682;9.016;2023-07-30T14:40:19;15.77;;;14.23;;